Time;durP1;ratioP1;P1;durP2;ratioP2;P2;SDS_P1;SDS_P2;PMS_P1;PMS_P2;Temp;Humidity;BMP_temperature;BMP_pressure;BME280_temperature;BME280_humidity;BME280_pressure;Samples;Min_cycle;Max_cycle;Signal;HPM_P1;HPM_P2
2023/01/21 00:00:07;;;;;;;;;;;;;;;-0.93;100.00;102518.25;4985076;28;19925;-61
2023/01/21 00:02:32;;;;;;;;;;;;;;;-0.94;100.00;102524.38;4985888;28;19964;-60
2023/01/21 00:04:58;;;;;;;;;;;;;;;-0.94;100.00;102531.34;4987811;28;19924;-61
2023/01/21 00:07:25;;;;;;;;;;;;;;;-0.95;100.00;102540.94;4982342;28;21276;-61
2023/01/21 00:09:50;;;;;;;;;;;;;;;-0.95;100.00;102542.69;4987382;28;19928;-61
2023/01/21 00:12:15;;;;;;;;;;;;;;;-0.96;100.00;102536.63;4981920;28;19918;-61
2023/01/21 00:14:40;;;;;;;;;;;;;;;-0.95;100.00;102545.31;4988437;28;20012;-61
2023/01/21 00:17:05;;;;;;;;;;;;;;;-0.96;100.00;102547.06;4982425;28;20373;-61
2023/01/21 00:19:31;;;;;;;;;;;;;;;-0.96;100.00;102544.44;4987266;28;19951;-61
2023/01/21 00:21:56;;;;;;;;;;;;;;;-0.96;100.00;102551.41;4994873;28;20327;-61
2023/01/21 00:24:24;;;;;;;;;;;;;;;-0.97;100.00;102557.53;4992846;28;19917;-61
2023/01/21 00:26:49;;;;;;;;;;;;;;;-0.99;100.00;102555.00;4987604;28;19926;-62
2023/01/21 00:29:14;;;;;;;;;;;;;;;-0.99;100.00;102547.16;4991367;28;20003;-61
2023/01/21 00:31:40;;;;;;;;;;;;;;;-1.01;100.00;102551.59;4989087;28;19922;-61
2023/01/21 00:34:05;;;;;;;;;;;;;;;-1.02;100.00;102549.88;4987015;28;20013;-61
2023/01/21 00:36:30;;;;;;;;;;;;;;;-1.02;100.00;102559.47;4985530;28;19924;-62
2023/01/21 00:38:56;;;;;;;;;;;;;;;-1.02;100.00;102562.06;4984208;28;20695;-61
2023/01/21 00:41:23;;;;;;;;;;;;;;;-1.03;100.00;102570.78;4980327;28;20013;-61
2023/01/21 00:43:48;;;;;;;;;;;;;;;-1.04;100.00;102571.69;4981078;28;19965;-61
2023/01/21 00:46:13;;;;;;;;;;;;;;;-1.05;100.00;102572.63;4984618;28;20366;-61
2023/01/21 00:48:39;;;;;;;;;;;;;;;-1.07;100.00;102570.06;4979152;28;19941;-61
2023/01/21 00:51:04;;;;;;;;;;;;;;;-1.06;100.00;102587.41;4988810;28;19921;-61
2023/01/21 00:53:30;;;;;;;;;;;;;;;-1.07;100.00;102588.31;4985927;28;19918;-62
2023/01/21 00:56:04;;;;;;;;;;;;;;;-1.07;100.00;102587.47;4985668;28;19989;-61
2023/01/21 00:58:29;;;;;;;;;;;;;;;-1.08;100.00;102591.81;4980235;28;19949;-61
2023/01/21 01:01:01;;;;;;;;;;;;;;;-1.09;100.00;102600.53;4985573;28;20492;-62
2023/01/21 01:03:26;;;;;;;;;;;;;;;-1.10;100.00;102603.22;4980990;28;19925;-62
2023/01/21 01:05:52;;;;;;;;;;;;;;;-1.08;100.00;102609.22;4983344;28;19918;-61
2023/01/21 01:08:17;;;;;;;;;;;;;;;-1.10;100.00;102614.50;4983282;28;19945;-62
2023/01/21 01:10:42;;;;;;;;;;;;;;;-1.11;100.00;102618.00;4982516;28;19922;-62
2023/01/21 01:13:07;;;;;;;;;;;;;;;-1.11;100.00;102630.19;4981385;28;19918;-62
2023/01/21 01:15:32;;;;;;;;;;;;;;;-1.11;100.00;102628.44;4987830;28;19968;-61
2023/01/21 01:17:57;;;;;;;;;;;;;;;-1.11;100.00;102633.63;4989720;28;19921;-61
2023/01/21 01:20:23;;;;;;;;;;;;;;;-1.10;100.00;102647.53;4992741;28;19980;-61
2023/01/21 01:22:48;;;;;;;;;;;;;;;-1.11;100.00;102653.66;4986417;28;19929;-61
2023/01/21 01:25:13;;;;;;;;;;;;;;;-1.12;100.00;102655.41;4984404;28;19922;-61
2023/01/21 01:27:38;;;;;;;;;;;;;;;-1.12;100.00;102658.00;4984960;28;19994;-61
2023/01/21 01:30:04;;;;;;;;;;;;;;;-1.11;100.00;102664.06;4980302;28;19929;-61
2023/01/21 01:32:29;;;;;;;;;;;;;;;-1.12;100.00;102668.44;4985951;28;19944;-61
2023/01/21 01:34:54;;;;;;;;;;;;;;;-1.12;100.00;102667.59;4981859;28;19918;-61
2023/01/21 01:37:20;;;;;;;;;;;;;;;-1.14;100.00;102670.25;4990388;28;20008;-61
2023/01/21 01:39:45;;;;;;;;;;;;;;;-1.14;100.00;102669.38;4991044;28;19924;-61
2023/01/21 01:42:14;;;;;;;;;;;;;;;-1.17;100.00;102678.13;4981287;28;19961;-61
2023/01/21 01:44:48;;;;;;;;;;;;;;;-1.16;100.00;102671.16;4990840;28;19972;-61
2023/01/21 01:47:13;;;;;;;;;;;;;;;-1.19;100.00;102669.50;4986246;28;19925;-61
2023/01/21 01:49:39;;;;;;;;;;;;;;;-1.20;100.00;102680.84;4997587;28;20320;-61
2023/01/21 01:52:05;;;;;;;;;;;;;;;-1.21;100.00;102688.72;4985182;28;19980;-61
2023/01/21 01:54:35;;;;;;;;;;;;;;;-1.23;100.00;102693.97;4987274;28;19917;-61
2023/01/21 01:57:01;;;;;;;;;;;;;;;-1.25;100.00;102693.16;4994011;28;19917;-61
2023/01/21 01:59:27;;;;;;;;;;;;;;;-1.25;100.00;102703.59;4988956;28;19924;-62
2023/01/21 02:01:53;;;;;;;;;;;;;;;-1.25;100.00;102712.28;4987200;28;19918;-61
2023/01/21 02:04:20;;;;;;;;;;;;;;;-1.26;100.00;102704.50;4986522;28;19917;-61
2023/01/21 02:06:46;;;;;;;;;;;;;;;-1.28;100.00;102707.16;4986631;28;19922;-61
2023/01/21 02:09:11;;;;;;;;;;;;;;;-1.28;100.00;102711.53;4990242;28;20120;-61
2023/01/21 02:11:37;;;;;;;;;;;;;;;-1.28;100.00;102714.13;4990750;28;19929;-61
2023/01/21 02:14:02;;;;;;;;;;;;;;;-1.29;100.00;102712.41;4987899;28;19993;-62
2023/01/21 02:16:37;;;;;;;;;;;;;;;-1.30;100.00;102724.59;4995076;28;19925;-61
2023/01/21 02:19:08;;;;;;;;;;;;;;;-1.31;100.00;102722.03;4984641;28;19918;-61
2023/01/21 02:21:52;;;;;;;;;;;;;;;-1.33;100.00;102723.84;4986857;28;19928;-61
2023/01/21 02:24:20;;;;;;;;;;;;;;;-1.35;100.00;102730.88;4987672;28;19925;-61
2023/01/21 02:26:45;;;;;;;;;;;;;;;-1.38;100.00;102730.97;4990733;28;19964;-61
2023/01/21 02:29:29;;;;;;;;;;;;;;;-1.38;100.00;102730.97;4992411;28;19927;-60
2023/01/21 02:31:57;;;;;;;;;;;;;;;-1.39;100.00;102739.69;4989215;28;19953;-61
2023/01/21 02:34:43;;;;;;;;;;;;;;;-1.39;100.00;102742.28;4984687;28;19924;-61
2023/01/21 02:37:08;;;;;;;;;;;;;;;-1.39;100.00;102740.53;4993742;28;20004;-61
2023/01/21 02:39:33;;;;;;;;;;;;;;;-1.40;100.00;102745.78;4991149;28;20013;-61
2023/01/21 02:42:01;;;;;;;;;;;;;;;-1.41;100.00;102746.69;4990986;28;19972;-61
2023/01/21 02:44:40;;;;;;;;;;;;;;;-1.43;100.00;102744.13;4985287;28;20449;-61
2023/01/21 02:47:05;;;;;;;;;;;;;;;-1.45;100.00;102742.44;4992845;28;19921;-60
2023/01/21 02:49:36;;;;;;;;;;;;;;;-1.45;100.00;102747.66;4987696;28;20388;-61
2023/01/21 02:52:01;;;;;;;;;;;;;;;-1.47;100.00;102752.91;4988943;28;20631;-61
2023/01/21 02:54:38;;;;;;;;;;;;;;;-1.48;100.00;102755.56;4987615;28;19918;-61
2023/01/21 02:57:15;;;;;;;;;;;;;;;-1.49;100.00;102761.69;4987180;28;20068;-61
2023/01/21 02:59:43;;;;;;;;;;;;;;;-1.49;100.00;102762.53;4986121;28;19921;-61
2023/01/21 03:02:17;;;;;;;;;;;;;;;-1.49;100.00;102770.34;4984243;28;20035;-61
2023/01/21 03:04:45;;;;;;;;;;;;;;;-1.51;100.00;102774.75;5000608;28;20535;-61
2023/01/21 03:07:20;;;;;;;;;;;;;;;-1.51;100.00;102771.28;4990130;28;19921;-61
2023/01/21 03:09:45;;;;;;;;;;;;;;;-1.52;100.00;102769.59;4988747;28;19965;-61
2023/01/21 03:12:29;;;;;;;;;;;;;;;-1.52;100.00;102766.97;4991840;28;20467;-61
2023/01/21 03:18:06;;;;;;;;;;;;;;;-1.60;100.00;102765.47;4981168;28;19925;-61
2023/01/21 03:20:35;;;;;;;;;;;;;;;-1.54;100.00;102774.00;4984837;28;19917;-61
2023/01/21 03:23:04;;;;;;;;;;;;;;;-1.54;100.00;102782.66;4985869;28;19948;-61
2023/01/21 03:25:30;;;;;;;;;;;;;;;-1.53;100.00;102786.13;4989577;28;19926;-61
2023/01/21 03:27:56;;;;;;;;;;;;;;;-1.54;100.00;102792.22;4986445;28;19965;-61
2023/01/21 03:30:23;;;;;;;;;;;;;;;-1.53;100.00;102791.34;4987900;28;20573;-61
2023/01/21 03:32:50;;;;;;;;;;;;;;;-1.55;100.00;102788.78;5003440;28;19960;-61
2023/01/21 03:35:18;;;;;;;;;;;;;;;-1.55;100.00;102801.78;4994081;28;20357;-61
2023/01/21 03:37:59;;;;;;;;;;;;;;;-1.55;100.00;102809.63;4985730;28;19991;-61
2023/01/21 03:40:26;;;;;;;;;;;;;;;-1.56;100.00;102806.16;4985075;28;20378;-61
2023/01/21 03:42:54;;;;;;;;;;;;;;;-1.56;100.00;102813.97;4997805;28;19917;-62
2023/01/21 03:45:29;;;;;;;;;;;;;;;-1.58;100.00;102802.75;4990481;28;19921;-61
2023/01/21 03:47:58;;;;;;;;;;;;;;;-1.58;100.00;102812.31;4988923;28;19922;-61
2023/01/21 03:50:26;;;;;;;;;;;;;;;-1.61;100.00;102805.44;4981923;28;19976;-61
2023/01/21 03:52:51;;;;;;;;;;;;;;;-1.62;100.00;102811.56;4982976;28;19925;-61
2023/01/21 03:55:17;;;;;;;;;;;;;;;-1.63;100.00;102817.66;4983418;28;20293;-61
2023/01/21 03:57:42;;;;;;;;;;;;;;;-1.64;100.00;102821.16;4985567;28;20008;-62
2023/01/21 04:00:07;;;;;;;;;;;;;;;-1.65;100.00;102823.81;4985526;28;20004;-61
2023/01/21 04:02:32;;;;;;;;;;;;;;;-1.66;100.00;102820.34;4986367;28;19941;-62
2023/01/21 04:04:58;;;;;;;;;;;;;;;-1.67;100.00;102816.03;4991175;28;19918;-61
2023/01/21 04:07:23;;;;;;;;;;;;;;;-1.67;100.00;102818.66;4987623;28;19921;-61
2023/01/21 04:09:48;;;;;;;;;;;;;;;-1.69;100.00;102822.19;4989099;28;19922;-61
2023/01/21 04:12:14;;;;;;;;;;;;;;;-1.70;100.00;102821.34;4986261;28;19972;-61
2023/01/21 04:14:39;;;;;;;;;;;;;;;-1.72;100.00;102825.75;4987500;28;19918;-61
2023/01/21 04:17:04;;;;;;;;;;;;;;;-1.73;100.00;102826.63;4989294;28;19921;-61
2023/01/21 04:19:29;;;;;;;;;;;;;;;-1.74;100.00;102831.84;4989729;28;19924;-61
2023/01/21 04:21:55;;;;;;;;;;;;;;;-1.74;100.00;102831.84;4989469;28;20613;-61
2023/01/21 04:24:20;;;;;;;;;;;;;;;-1.76;100.00;102833.66;4981479;28;19918;-61
2023/01/21 04:26:45;;;;;;;;;;;;;;;-1.78;100.00;102833.69;4983559;28;19933;-61
2023/01/21 04:29:10;;;;;;;;;;;;;;;-1.78;100.00;102828.50;4992051;28;20289;-61
2023/01/21 04:31:35;;;;;;;;;;;;;;;-1.79;100.00;102826.78;4984342;28;20275;-61
2023/01/21 04:34:00;;;;;;;;;;;;;;;-1.79;100.00;102837.19;4988272;28;19918;-61
2023/01/21 04:36:26;;;;;;;;;;;;;;;-1.81;100.00;102832.94;4990819;28;19918;-61
2023/01/21 04:38:51;;;;;;;;;;;;;;;-1.83;100.00;102834.72;4982570;28;20071;-61
2023/01/21 04:41:16;;;;;;;;;;;;;;;-1.82;100.00;102844.25;4979893;28;19964;-61
2023/01/21 04:43:41;;;;;;;;;;;;;;;-1.84;100.00;102839.06;4984725;28;19918;-61
2023/01/21 04:46:06;;;;;;;;;;;;;;;-1.84;100.00;102841.69;4983188;28;19924;-61
2023/01/21 04:48:32;;;;;;;;;;;;;;;-1.85;100.00;102844.34;4985124;28;19928;-61
2023/01/21 04:50:57;;;;;;;;;;;;;;;-1.85;100.00;102858.22;4989895;28;20476;-61
2023/01/21 04:53:22;;;;;;;;;;;;;;;-1.84;100.00;102859.91;4981150;28;19925;-61
2023/01/21 04:55:49;;;;;;;;;;;;;;;-1.85;100.00;102857.34;4988391;28;19914;-61
2023/01/21 04:58:14;;;;;;;;;;;;;;;-1.88;100.00;102859.16;4983889;28;19922;-61
2023/01/21 05:00:40;;;;;;;;;;;;;;;-1.88;100.00;102861.75;4985298;28;19918;-62
2023/01/21 05:03:05;;;;;;;;;;;;;;;-1.87;100.00;102863.44;4996360;28;19913;-61
2023/01/21 05:05:30;;;;;;;;;;;;;;;-1.86;100.00;102872.13;4987450;28;19979;-61
2023/01/21 05:07:55;;;;;;;;;;;;;;;-1.86;100.00;102879.94;4984596;28;19922;-61
2023/01/21 05:10:20;;;;;;;;;;;;;;;-1.87;100.00;102884.28;4988531;28;20053;-61
2023/01/21 05:12:47;;;;;;;;;;;;;;;-1.86;100.00;102885.13;4979592;28;19922;-61
2023/01/21 05:15:12;;;;;;;;;;;;;;;-1.85;100.00;102886.00;4987631;28;19925;-61
2023/01/21 05:17:37;;;;;;;;;;;;;;;-1.84;100.00;102885.09;4985126;28;19914;-60
2023/01/21 05:20:03;;;;;;;;;;;;;;;-1.84;100.00;102885.09;4990818;28;20012;-61
2023/01/21 05:22:28;;;;;;;;;;;;;;;-1.85;100.00;102889.44;4989518;28;19917;-61
2023/01/21 05:24:53;;;;;;;;;;;;;;;-1.84;100.00;102893.75;4997973;28;19917;-61
2023/01/21 05:27:20;;;;;;;;;;;;;;;-1.84;100.00;102891.16;4990879;28;20331;-61
2023/01/21 05:29:45;;;;;;;;;;;;;;;-1.85;100.00;102892.06;4991015;28;19928;-61
2023/01/21 05:32:10;;;;;;;;;;;;;;;-1.85;100.00;102899.00;4989721;28;20004;-61
2023/01/21 05:34:36;;;;;;;;;;;;;;;-1.86;100.00;102890.34;4983538;28;19921;-61
2023/01/21 05:37:01;;;;;;;;;;;;;;;-1.85;100.00;102897.25;4995517;28;19961;-61
2023/01/21 05:39:26;;;;;;;;;;;;;;;-1.85;100.00;102901.63;4997331;28;19920;-61
2023/01/21 05:41:51;;;;;;;;;;;;;;;-1.85;100.00;102904.22;4986840;28;20582;-61
2023/01/21 05:44:16;;;;;;;;;;;;;;;-1.86;100.00;102900.75;4989394;28;20004;-61
2023/01/21 05:46:41;;;;;;;;;;;;;;;-1.87;100.00;102905.13;4983877;28;19918;-61
2023/01/21 05:49:06;;;;;;;;;;;;;;;-1.88;100.00;102905.16;4996007;28;19953;-61
2023/01/21 05:51:32;;;;;;;;;;;;;;;-1.89;100.00;102906.06;4996684;28;19924;-61
2023/01/21 05:53:57;;;;;;;;;;;;;;;-1.90;100.00;102909.56;4990367;28;19914;-61
2023/01/21 05:56:22;;;;;;;;;;;;;;;-1.91;100.00;102906.09;4994786;28;19924;-61
2023/01/21 05:58:47;;;;;;;;;;;;;;;-1.91;100.00;102915.66;4988186;28;19914;-60
2023/01/21 06:01:12;;;;;;;;;;;;;;;-1.92;100.00;102924.38;4989607;28;19921;-61
2023/01/21 06:03:38;;;;;;;;;;;;;;;-1.94;100.00;102926.16;4985114;28;19942;-61
2023/01/21 06:06:03;;;;;;;;;;;;;;;-1.96;100.00;102930.53;4991827;28;20377;-60
2023/01/21 06:08:28;;;;;;;;;;;;;;;-1.99;100.00;102931.47;4986933;28;19925;-61
2023/01/21 06:10:55;;;;;;;;;;;;;;;-2.01;100.00;102935.00;4989766;28;19968;-61
2023/01/21 06:13:20;;;;;;;;;;;;;;;-2.04;100.00;102927.25;4987164;28;19925;-61
2023/01/21 06:15:45;;;;;;;;;;;;;;;-2.04;100.00;102927.25;4991359;28;19917;-61
2023/01/21 06:18:10;;;;;;;;;;;;;;;-2.07;100.00;102930.78;4985199;28;19926;-61
2023/01/21 06:20:35;;;;;;;;;;;;;;;-2.08;100.00;102931.69;4990013;28;19997;-60
2023/01/21 06:23:02;;;;;;;;;;;;;;;-2.09;100.00;102926.53;4982274;28;19922;-61
2023/01/21 06:25:27;;;;;;;;;;;;;;;-2.10;100.00;102930.03;4987505;28;20444;-60
2023/01/21 06:27:54;;;;;;;;;;;;;;;-2.12;100.00;102943.06;4985534;28;19929;-61
2023/01/21 06:30:19;;;;;;;;;;;;;;;-2.13;100.00;102943.13;4987175;28;19921;-61
2023/01/21 06:32:44;;;;;;;;;;;;;;;-2.15;100.00;102947.50;4991659;28;19925;-61
2023/01/21 06:35:09;;;;;;;;;;;;;;;-2.16;100.00;102953.59;4990695;28;19972;-60
2023/01/21 06:37:34;;;;;;;;;;;;;;;-2.17;100.00;102959.69;4986898;28;19928;-61
2023/01/21 06:39:59;;;;;;;;;;;;;;;-2.21;100.00;102966.72;4984481;28;19922;-60
2023/01/21 06:42:25;;;;;;;;;;;;;;;-2.22;100.00;102972.81;4989296;28;19928;-61
2023/01/21 06:44:50;;;;;;;;;;;;;;;-2.23;100.00;102976.31;4994594;28;19918;-61
2023/01/21 06:47:15;;;;;;;;;;;;;;;-2.24;100.00;102985.03;4980602;28;19918;-61
2023/01/21 06:49:40;;;;;;;;;;;;;;;-2.25;100.00;102978.09;4984141;28;19926;-60
2023/01/21 06:52:06;;;;;;;;;;;;;;;-2.26;100.00;102979.00;4990154;28;20449;-60
2023/01/21 06:54:31;;;;;;;;;;;;;;;-2.26;100.00;102986.81;4984379;28;20353;-61
2023/01/21 06:56:56;;;;;;;;;;;;;;;-2.27;100.00;102988.56;4986590;28;20020;-60
2023/01/21 06:59:21;;;;;;;;;;;;;;;-2.26;100.00;102989.41;4983417;28;19924;-61
2023/01/21 07:01:47;;;;;;;;;;;;;;;-2.27;99.97;103001.56;4990044;28;20345;-61
2023/01/21 07:04:12;;;;;;;;;;;;;;;-2.29;100.00;102992.94;4977797;28;20016;-60
2023/01/21 07:06:37;;;;;;;;;;;;;;;-2.30;100.00;103000.78;4983531;28;19922;-60
2023/01/21 07:09:03;;;;;;;;;;;;;;;-2.31;100.00;103004.28;4993305;28;19930;-61
2023/01/21 07:11:29;;;;;;;;;;;;;;;-2.31;100.00;103004.28;4981132;28;19924;-61
2023/01/21 07:13:54;;;;;;;;;;;;;;;-2.34;100.00;103004.31;4995155;28;19913;-61
2023/01/21 07:16:19;;;;;;;;;;;;;;;-2.35;100.00;103013.00;4985998;28;19918;-61
2023/01/21 07:18:44;;;;;;;;;;;;;;;-2.35;100.00;103021.66;4985375;28;20403;-60
2023/01/21 07:21:09;;;;;;;;;;;;;;;-2.36;100.00;103019.09;4986021;28;19918;-61
2023/01/21 07:23:34;;;;;;;;;;;;;;;-2.37;100.00;103026.06;4985186;28;20354;-61
2023/01/21 07:26:00;;;;;;;;;;;;;;;-2.38;100.00;103029.53;4987467;28;19918;-61
2023/01/21 07:28:25;;;;;;;;;;;;;;;-2.39;100.00;103038.25;4997438;28;20040;-60
2023/01/21 07:30:50;;;;;;;;;;;;;;;-2.37;100.00;103043.41;4991386;28;19940;-61
2023/01/21 07:33:15;;;;;;;;;;;;;;;-2.33;100.00;103038.09;4992202;28;19922;-61
2023/01/21 07:35:40;;;;;;;;;;;;;;;-2.29;100.00;103039.78;4982922;28;19921;-61
2023/01/21 07:38:06;;;;;;;;;;;;;;;-2.25;100.00;103051.81;4984203;28;19922;-60
2023/01/21 07:40:31;;;;;;;;;;;;;;;-2.28;100.00;103038.88;4976192;28;19914;-60
2023/01/21 07:42:59;;;;;;;;;;;;;;;-2.17;100.00;103059.44;4988199;28;19972;-60
2023/01/21 07:45:24;;;;;;;;;;;;;;;-2.12;100.00;103073.22;4987956;28;19989;-60
2023/01/21 07:47:49;;;;;;;;;;;;;;;-2.08;100.00;103067.03;4982085;28;19914;-61
2023/01/21 07:50:15;;;;;;;;;;;;;;;-2.05;100.00;103073.94;4997377;28;19925;-60
2023/01/21 07:52:40;;;;;;;;;;;;;;;-2.02;100.00;103079.09;4984884;28;19918;-61
2023/01/21 07:55:05;;;;;;;;;;;;;;;-1.99;100.00;103089.44;4990182;28;19917;-61
2023/01/21 07:57:31;;;;;;;;;;;;;;;-1.97;100.00;103093.72;4993324;28;19914;-60
2023/01/21 07:59:56;;;;;;;;;;;;;;;-2.01;100.00;103081.66;4989029;28;19917;-60
2023/01/21 08:02:21;;;;;;;;;;;;;;;-1.91;100.00;103093.56;4992486;28;20025;-61
2023/01/21 08:04:46;;;;;;;;;;;;;;;-1.89;100.00;103099.59;4985450;28;19913;-61
2023/01/21 08:07:11;;;;;;;;;;;;;;;-1.87;100.00;103105.63;4989649;28;19917;-61
2023/01/21 08:09:37;;;;;;;;;;;;;;;-1.86;100.00;103090.84;4986311;28;20337;-60
2023/01/21 08:12:02;;;;;;;;;;;;;;;-1.83;100.00;103111.59;4985314;28;19992;-60
2023/01/21 08:14:27;;;;;;;;;;;;;;;-1.83;100.00;103110.75;4993182;28;19921;-61
2023/01/21 08:16:53;;;;;;;;;;;;;;;-1.82;100.00;103117.69;4988205;28;19920;-61
2023/01/21 08:19:18;;;;;;;;;;;;;;;-1.82;100.00;103115.94;4986983;28;19922;-60
2023/01/21 08:21:43;;;;;;;;;;;;;;;-1.81;100.00;103125.44;4985196;28;19964;-61
2023/01/21 08:24:08;;;;;;;;;;;;;;;-1.87;100.00;103121.25;4993759;28;19914;-60
2023/01/21 08:26:33;;;;;;;;;;;;;;;-1.79;100.00;103141.03;4982751;28;19914;-60
2023/01/21 08:28:59;;;;;;;;;;;;;;;-1.77;100.00;103147.06;4987333;28;19945;-61
2023/01/21 08:31:24;;;;;;;;;;;;;;;-1.76;100.00;103143.56;4973799;28;19918;-61
2023/01/21 08:33:50;;;;;;;;;;;;;;;-1.75;100.00;103138.31;4985456;28;19914;-60
2023/01/21 08:36:15;;;;;;;;;;;;;;;-1.75;100.00;103138.31;4989720;28;19964;-61
2023/01/21 08:38:40;;;;;;;;;;;;;;;-1.73;100.00;103140.94;4974317;28;19949;-61
2023/01/21 08:41:06;;;;;;;;;;;;;;;-1.70;100.00;103149.53;4976387;28;20591;-60
2023/01/21 08:43:31;;;;;;;;;;;;;;;-1.69;100.00;103153.84;4988394;28;19917;-61
2023/01/21 08:45:57;;;;;;;;;;;;;;;-1.67;100.00;103159.88;4982002;28;19913;-60
2023/01/21 08:48:22;;;;;;;;;;;;;;;-1.65;100.00;103157.22;4991321;28;19944;-60
2023/01/21 08:50:47;;;;;;;;;;;;;;;-1.63;100.00;103164.13;4987773;28;20365;-61
2023/01/21 08:53:13;;;;;;;;;;;;;;;-1.59;100.00;103172.72;4991362;28;19959;-61
2023/01/21 08:55:38;;;;;;;;;;;;;;;-1.60;100.00;103177.06;4984602;28;19913;-60
2023/01/21 08:58:03;;;;;;;;;;;;;;;-1.58;100.00;103177.88;4995929;28;19921;-60
2023/01/21 09:00:28;;;;;;;;;;;;;;;-1.54;100.00;103175.22;4986385;28;19918;-61
2023/01/21 09:02:54;;;;;;;;;;;;;;;-1.53;100.00;103185.59;4992374;28;19914;-61
2023/01/21 09:05:19;;;;;;;;;;;;;;;-1.51;100.00;103181.19;4986288;28;19967;-60
2023/01/21 09:07:45;;;;;;;;;;;;;;;-1.51;100.00;103190.78;4984528;28;19918;-60
2023/01/21 09:10:10;;;;;;;;;;;;;;;-1.47;100.00;103189.81;4991372;28;19984;-61
2023/01/21 09:12:37;;;;;;;;;;;;;;;-1.46;100.00;103192.38;4988090;28;20400;-61
2023/01/21 09:15:02;;;;;;;;;;;;;;;-1.44;100.00;103197.56;4981709;28;19933;-61
2023/01/21 09:17:27;;;;;;;;;;;;;;;-1.43;100.00;103194.06;4982124;28;19929;-61
2023/01/21 09:19:52;;;;;;;;;;;;;;;-1.42;100.00;103193.19;4995537;28;19975;-61
2023/01/21 09:22:17;;;;;;;;;;;;;;;-1.39;100.00;103191.34;4999214;28;20003;-60
2023/01/21 09:24:43;;;;;;;;;;;;;;;-1.37;100.00;103189.56;4993900;28;19918;-61
2023/01/21 09:27:09;;;;;;;;;;;;;;;-1.35;100.00;103193.00;4983648;28;19972;-61
2023/01/21 09:29:34;;;;;;;;;;;;;;;-1.33;100.00;103192.97;4991399;28;19925;-61
2023/01/21 09:32:00;;;;;;;;;;;;;;;-1.32;100.00;103197.28;4990742;28;19918;-60
2023/01/21 09:34:25;;;;;;;;;;;;;;;-1.30;100.00;103203.31;4996423;28;19921;-60
2023/01/21 09:36:50;;;;;;;;;;;;;;;-1.27;100.00;103204.09;4984333;28;20025;-61
2023/01/21 09:39:15;;;;;;;;;;;;;;;-1.25;100.00;103202.28;4984304;28;20003;-60
2023/01/21 09:41:51;;;;;;;;;;;;;;;-1.21;100.00;103215.25;4990765;28;19918;-60
2023/01/21 09:44:25;;;;;;;;;;;;;;;-1.20;100.00;103216.97;4991213;28;19929;-61
2023/01/21 09:46:50;;;;;;;;;;;;;;;-1.19;100.00;103222.16;4982378;28;19924;-60
2023/01/21 09:49:18;;;;;;;;;;;;;;;-1.17;100.00;103225.56;4985900;28;19922;-60
2023/01/21 09:51:46;;;;;;;;;;;;;;;-1.15;100.00;103226.41;4986577;28;19920;-61
2023/01/21 09:54:16;;;;;;;;;;;;;;;-1.14;100.00;103222.91;4985296;28;19919;-61
2023/01/21 09:56:54;;;;;;;;;;;;;;;-1.12;100.00;103223.75;4980114;28;19929;-60
2023/01/21 09:59:42;;;;;;;;;;;;;;;-1.10;100.00;103229.78;4984932;28;19917;-60
2023/01/21 10:02:24;;;;;;;;;;;;;;;-1.06;100.00;103239.22;4982301;28;20304;-61
2023/01/21 10:05:10;;;;;;;;;;;;;;;-1.04;100.00;103249.63;4988017;28;19925;-61
2023/01/21 10:07:41;;;;;;;;;;;;;;;-1.02;100.00;103246.06;4946077;28;19918;-61
2023/01/21 10:10:06;;;;;;;;;;;;;;;-0.99;100.00;103252.97;4995577;28;19925;-60
2023/01/21 10:12:31;;;;;;;;;;;;;;;-0.99;100.00;103252.97;4987193;28;19924;-61
2023/01/21 10:14:59;;;;;;;;;;;;;;;-0.98;100.00;103255.53;4985921;28;19914;-61
2023/01/21 10:17:30;;;;;;;;;;;;;;;-0.95;100.00;103259.81;4991230;28;20358;-61
2023/01/21 10:20:04;;;;;;;;;;;;;;;-0.90;100.00;103264.91;4989472;28;19925;-60
2023/01/21 10:22:30;;;;;;;;;;;;;;;-0.87;100.00;103251.81;4987540;28;19917;-60
2023/01/21 10:24:59;;;;;;;;;;;;;;;-0.86;100.00;103262.22;4986834;28;20401;-60
2023/01/21 10:27:25;;;;;;;;;;;;;;;-0.83;100.00;103259.53;4999766;28;20008;-61
2023/01/21 10:29:56;;;;;;;;;;;;;;;-0.83;100.00;103248.25;4983227;28;20025;-61
2023/01/21 10:32:24;;;;;;;;;;;;;;;-0.81;100.00;103249.94;4982953;28;19914;-61
2023/01/21 10:34:51;;;;;;;;;;;;;;;-0.77;100.00;103251.56;4990702;28;19921;-60
2023/01/21 10:37:16;;;;;;;;;;;;;;;-0.69;100.00;103246.13;4996915;28;20029;-61
2023/01/21 10:39:56;;;;;;;;;;;;;;;-0.63;100.00;103241.63;4989430;28;20001;-61
2023/01/21 10:42:35;;;;;;;;;;;;;;;-0.57;100.00;103239.78;4985456;28;19948;-61
2023/01/21 10:45:14;;;;;;;;;;;;;;;-0.52;100.00;103232.66;4990536;28;20003;-61
2023/01/21 10:47:39;;;;;;;;;;;;;;;-0.46;100.00;103240.34;4978830;28;21456;-60
2023/01/21 10:50:17;;;;;;;;;;;;;;;-0.40;100.00;103241.03;4986818;28;20530;-61
2023/01/21 10:52:49;;;;;;;;;;;;;;;-0.35;100.00;103236.53;4981457;28;19965;-60
2023/01/21 10:55:23;;;;;;;;;;;;;;;-0.27;100.00;103230.25;4997528;28;20301;-60
2023/01/21 10:57:51;;;;;;;;;;;;;;;-0.23;100.00;103240.56;4992266;28;19913;-61
2023/01/21 11:00:36;;;;;;;;;;;;;;;-0.17;100.00;103240.41;4989074;28;19948;-60
2023/01/21 11:03:07;;;;;;;;;;;;;;;-0.08;100.00;103241.88;4977338;28;20313;-60
2023/01/21 11:05:32;;;;;;;;;;;;;;;0.03;100.00;103246.84;4982548;28;20459;-60
2023/01/21 11:07:58;;;;;;;;;;;;;;;0.15;100.00;103247.31;4986246;28;19995;-61
2023/01/21 11:10:25;;;;;;;;;;;;;;;0.28;100.00;103242.59;4985921;28;20321;-61
2023/01/21 11:12:51;;;;;;;;;;;;;;;0.36;100.00;103248.47;4985467;28;19918;-61
2023/01/21 11:15:18;;;;;;;;;;;;;;;0.43;100.00;103236.06;4986581;28;20415;-61
2023/01/21 11:17:44;;;;;;;;;;;;;;;0.49;100.00;103241.94;4987622;28;19921;-61
2023/01/21 11:20:18;;;;;;;;;;;;;;;0.57;100.00;103239.09;4988565;28;19968;-61
2023/01/21 11:22:45;;;;;;;;;;;;;;;0.59;100.00;103237.31;4986374;28;19918;-61
2023/01/21 11:25:25;;;;;;;;;;;;;;;0.61;100.00;103238.13;4981267;28;19926;-61
2023/01/21 11:27:50;;;;;;;;;;;;;;;0.64;100.00;103240.66;4983506;28;19921;-61
2023/01/21 11:30:27;;;;;;;;;;;;;;;0.67;100.00;103240.53;4991189;28;19925;-61
2023/01/21 11:32:52;;;;;;;;;;;;;;;0.71;100.00;103238.69;4984837;28;20571;-61
2023/01/21 11:35:20;;;;;;;;;;;;;;;0.75;100.00;103229.84;4989772;28;19956;-62
2023/01/21 11:37:45;;;;;;;;;;;;;;;0.78;100.00;103227.97;4991475;28;19917;-61
2023/01/21 11:40:12;;;;;;;;;;;;;;;0.83;100.00;103226.06;4989196;28;20388;-61
2023/01/21 11:42:48;;;;;;;;;;;;;;;0.85;100.00;103219.03;4990134;28;20321;-61
2023/01/21 11:45:19;;;;;;;;;;;;;;;0.89;100.00;103223.28;4982602;28;20464;-61
2023/01/21 11:47:48;;;;;;;;;;;;;;;0.96;100.00;103218.69;4982373;28;19926;-61
2023/01/21 11:50:15;;;;;;;;;;;;;;;1.04;100.00;103221.06;4984355;28;20479;-62
2023/01/21 11:52:41;;;;;;;;;;;;;;;1.09;100.00;103221.75;4993673;28;19918;-62
2023/01/21 11:55:20;;;;;;;;;;;;;;;1.17;100.00;103217.13;4982771;28;19922;-62
2023/01/21 11:57:50;;;;;;;;;;;;;;;1.25;100.00;103222.97;4989360;28;19993;-61
2023/01/21 12:00:17;;;;;;;;;;;;;;;1.38;100.00;103212.91;4979228;28;19975;-61
2023/01/21 12:02:44;;;;;;;;;;;;;;;1.51;100.00;103222.91;4988290;28;19945;-62
2023/01/21 12:05:15;;;;;;;;;;;;;;;1.67;100.00;103220.59;4977672;28;20008;-61
2023/01/21 12:07:41;;;;;;;;;;;;;;;1.83;100.00;103221.78;4975877;28;20444;-62
2023/01/21 12:10:18;;;;;;;;;;;;;;;1.97;100.00;103223.88;4987898;28;20477;-62
2023/01/21 12:13:11;;;;;;;;;;;;;;;2.12;100.00;103217.22;4986919;28;20024;-62
2023/01/21 12:16:05;;;;;;;;;;;;;;;2.25;100.00;103223.72;4974180;28;20768;-62
2023/01/21 12:18:30;;;;;;;;;;;;;;;2.39;100.00;103217.94;4990291;28;19917;-61
2023/01/21 12:21:03;;;;;;;;;;;;;;;2.52;100.00;103219.16;4980540;28;20345;-61
2023/01/21 12:23:31;;;;;;;;;;;;;;;2.65;100.00;103216.94;4984671;28;19917;-61
2023/01/21 12:26:12;;;;;;;;;;;;;;;2.78;100.00;103223.38;4983149;28;19932;-60
2023/01/21 12:28:43;;;;;;;;;;;;;;;2.87;100.00;103216.91;4983085;28;19922;-61
2023/01/21 12:31:21;;;;;;;;;;;;;;;2.93;100.00;103222.78;4995341;28;20685;-61